createdAt,value
2018-09-24T00:00:40.207Z,0
2018-09-24T00:01:40.485Z,0
2018-09-24T00:02:40.265Z,0
2018-09-24T00:03:40.708Z,0
2018-09-24T00:04:40.443Z,0
2018-09-24T00:05:40.709Z,0
2018-09-24T00:06:40.183Z,0
2018-09-24T00:07:39.979Z,0
2018-09-24T00:08:40.452Z,0
2018-09-24T00:09:40.425Z,0
2018-09-24T00:10:40.406Z,0
2018-09-24T00:11:39.915Z,0
2018-09-24T00:12:40.679Z,0
2018-09-24T00:13:40.433Z,0
2018-09-24T00:14:40.392Z,0
2018-09-24T00:15:40.415Z,0
2018-09-24T00:16:40.449Z,0
2018-09-24T00:17:40.561Z,0
2018-09-24T00:18:40.251Z,0
2018-09-24T00:19:40.143Z,0
2018-09-24T00:20:40.628Z,0
2018-09-24T00:21:40.369Z,0
2018-09-24T00:22:40.181Z,0
2018-09-24T00:23:40.375Z,0
2018-09-24T00:24:40.377Z,0
2018-09-24T00:25:40.108Z,0
2018-09-24T00:26:40.141Z,0
2018-09-24T00:27:41.982Z,0
2018-09-24T00:28:40.102Z,0
2018-09-24T00:29:40.608Z,0
2018-09-24T00:30:39.846Z,0
2018-09-24T00:31:40.363Z,0
2018-09-24T00:32:40.986Z,0
2018-09-24T00:33:40.083Z,0
2018-09-24T00:34:39.824Z,0
2018-09-24T00:35:39.565Z,0
2018-09-24T00:36:40.100Z,0
2018-09-24T00:37:39.820Z,0
2018-09-24T00:38:40.585Z,0
2018-09-24T00:39:40.310Z,0
2018-09-24T00:40:40.068Z,0
2018-09-24T00:41:40.310Z,0
2018-09-24T00:42:40.610Z,0
2018-09-24T00:43:40.263Z,0
2018-09-24T00:44:40.049Z,0
2018-09-24T00:45:40.306Z,0
2018-09-24T00:46:40.310Z,0
2018-09-24T00:47:40.364Z,0
2018-09-24T00:48:40.378Z,0
2018-09-24T00:49:40.295Z,0
2018-09-24T00:50:40.059Z,0
2018-09-24T00:51:40.049Z,0
2018-09-24T00:52:40.289Z,0
2018-09-24T00:53:40.533Z,0
2018-09-24T00:54:40.008Z,0
2018-09-24T00:55:40.545Z,0
2018-09-24T00:56:39.999Z,0
2018-09-24T00:57:40.318Z,0
2018-09-24T00:58:40.060Z,0
2018-09-24T00:59:40.248Z,0
2018-09-24T01:00:39.713Z,0
2018-09-24T01:01:39.731Z,0
2018-09-24T01:02:39.976Z,0
2018-09-24T01:03:40.018Z,0
2018-09-24T01:04:39.727Z,0
2018-09-24T01:05:39.444Z,0
2018-09-24T01:06:40.230Z,0
2018-09-24T01:07:40.276Z,0
2018-09-24T01:08:40.489Z,0
2018-09-24T01:09:39.428Z,0
2018-09-24T01:10:40.233Z,0
2018-09-24T01:11:40.192Z,0
2018-09-24T01:12:39.949Z,0
2018-09-24T01:13:40.174Z,0
2018-09-24T01:14:39.941Z,0
2018-09-24T01:15:39.935Z,0
2018-09-24T01:16:40.181Z,0
2018-09-24T01:17:40.250Z,0
2018-09-24T01:18:40.017Z,0
2018-09-24T01:19:39.652Z,0
2018-09-24T01:20:40.172Z,0
2018-09-24T01:21:39.892Z,0
2018-09-24T01:22:40.440Z,0
2018-09-24T01:23:40.466Z,0
2018-09-24T01:24:40.141Z,0
2018-09-24T01:25:40.158Z,0
2018-09-24T01:26:40.150Z,0
2018-09-24T01:27:40.239Z,0
2018-09-24T01:28:40.177Z,0
2018-09-24T01:29:39.608Z,0
2018-09-24T01:30:40.124Z,0
2018-09-24T01:31:39.595Z,0
2018-09-24T01:32:40.108Z,0
2018-09-24T01:33:40.435Z,0
2018-09-24T01:34:40.114Z,0
2018-09-24T01:35:40.360Z,0
2018-09-24T01:36:40.088Z,0
2018-09-24T01:37:39.580Z,0
2018-09-24T01:38:39.904Z,0
2018-09-24T01:39:39.598Z,0
2018-09-24T01:40:39.812Z,0
2018-09-24T01:41:40.091Z,0
2018-09-24T01:42:40.070Z,0
2018-09-24T01:43:40.434Z,0
2018-09-24T01:44:39.813Z,0
2018-09-24T01:45:39.806Z,0
2018-09-24T01:46:39.795Z,0
2018-09-24T01:47:40.061Z,0
2018-09-24T01:48:40.090Z,0
2018-09-24T01:49:40.040Z,0
2018-09-24T01:50:40.301Z,0
2018-09-24T01:51:39.782Z,0
2018-09-24T01:52:39.763Z,0
2018-09-24T01:53:40.040Z,0
2018-09-24T01:54:39.780Z,0
2018-09-24T01:55:40.023Z,0
2018-09-24T01:56:40.272Z,0
2018-09-24T01:57:39.748Z,0
2018-09-24T01:58:40.105Z,0
2018-09-24T01:59:39.506Z,0
2018-09-24T02:00:40.021Z,0
2018-09-24T02:01:39.992Z,0
2018-09-24T02:02:39.971Z,0
2018-09-24T02:03:39.534Z,0
2018-09-24T02:04:39.469Z,0
2018-09-24T02:05:39.716Z,0
2018-09-24T02:06:40.225Z,0
2018-09-24T02:07:39.691Z,0
2018-09-24T02:08:39.954Z,0
2018-09-24T02:09:39.698Z,0
2018-09-24T02:10:39.965Z,0
2018-09-24T02:11:39.948Z,0
2018-09-24T02:12:39.773Z,0
2018-09-24T02:13:39.969Z,0
2018-09-24T02:14:39.963Z,0
2018-09-24T02:15:40.026Z,0
2018-09-24T02:16:39.730Z,0
2018-09-24T02:17:39.935Z,0
2018-09-24T02:18:40.394Z,0
2018-09-24T02:19:39.418Z,0
2018-09-24T02:20:40.207Z,0
2018-09-24T02:21:39.910Z,0
2018-09-24T02:22:39.918Z,0
2018-09-24T02:23:39.962Z,0
2018-09-24T02:24:39.910Z,0
2018-09-24T02:25:39.386Z,0
2018-09-24T02:26:39.902Z,0
2018-09-24T02:27:39.639Z,0
2018-09-24T02:28:39.924Z,0
2018-09-24T02:29:39.373Z,0
2018-09-24T02:30:40.154Z,0
2018-09-24T02:31:39.655Z,0
2018-09-24T02:32:40.174Z,0
2018-09-24T02:33:40.033Z,0
2018-09-24T02:34:39.870Z,0
2018-09-24T02:35:39.604Z,0
2018-09-24T02:36:39.371Z,0
2018-09-24T02:37:39.599Z,0
2018-09-24T02:38:39.887Z,0
2018-09-24T02:39:39.589Z,0
2018-09-24T02:40:39.589Z,0
2018-09-24T02:41:39.837Z,0
2018-09-24T02:42:39.829Z,0
2018-09-24T02:43:39.587Z,0
2018-09-24T02:44:39.589Z,0
2018-09-24T02:45:39.569Z,0
2018-09-24T02:46:39.825Z,0
2018-09-24T02:47:40.108Z,0
2018-09-24T02:48:39.347Z,0
2018-09-24T02:49:39.544Z,0
2018-09-24T02:50:39.796Z,0
2018-09-24T02:51:39.305Z,0
2018-09-24T02:52:39.528Z,0
2018-09-24T02:53:39.603Z,0
2018-09-24T02:54:39.264Z,0
2018-09-24T02:55:39.532Z,0
2018-09-24T02:56:39.771Z,0
2018-09-24T02:57:38.991Z,0
2018-09-24T02:58:39.829Z,0
2018-09-24T02:59:39.501Z,0
2018-09-24T03:00:39.486Z,0
2018-09-24T03:01:39.532Z,0
2018-09-24T03:02:39.477Z,0
2018-09-24T03:03:39.797Z,0
2018-09-24T03:04:39.746Z,0
2018-09-24T03:05:39.975Z,0
2018-09-24T03:06:39.749Z,0
2018-09-24T03:07:39.211Z,0
2018-09-24T03:08:39.214Z,0
2018-09-24T03:09:39.447Z,0
2018-09-24T03:10:39.448Z,0
2018-09-24T03:11:39.723Z,0
2018-09-24T03:12:39.720Z,0
2018-09-24T03:13:39.430Z,0
2018-09-24T03:14:39.183Z,0
2018-09-24T03:15:39.939Z,0
2018-09-24T03:16:39.940Z,0
2018-09-24T03:17:39.743Z,0
2018-09-24T03:18:39.564Z,0
2018-09-24T03:19:39.677Z,0
2018-09-24T03:20:38.902Z,0
2018-09-24T03:21:39.437Z,0
2018-09-24T03:22:39.149Z,0
2018-09-24T03:23:39.424Z,0
2018-09-24T03:24:39.657Z,0
2018-09-24T03:25:39.392Z,0
2018-09-24T03:26:39.650Z,0
2018-09-24T03:27:39.390Z,0
2018-09-24T03:28:38.875Z,0
2018-09-24T03:29:39.648Z,0
2018-09-24T03:30:39.370Z,0
2018-09-24T03:31:39.623Z,0
2018-09-24T03:32:39.622Z,0
2018-09-24T03:33:39.704Z,0
2018-09-24T03:34:39.347Z,0
2018-09-24T03:35:39.375Z,0
2018-09-24T03:36:39.596Z,0
2018-09-24T03:37:39.083Z,0
2018-09-24T03:38:39.098Z,0
2018-09-24T03:39:39.843Z,0
2018-09-24T03:40:39.626Z,0
2018-09-24T03:41:39.594Z,0
2018-09-24T03:42:39.598Z,0
2018-09-24T03:43:39.085Z,0
2018-09-24T03:44:39.573Z,0
2018-09-24T03:45:39.297Z,0
2018-09-24T03:46:39.306Z,0
2018-09-24T03:47:39.557Z,0
2018-09-24T03:48:39.347Z,0
2018-09-24T03:49:39.548Z,0
2018-09-24T03:50:39.039Z,0
2018-09-24T03:51:39.795Z,0
2018-09-24T03:52:39.270Z,0
2018-09-24T03:53:39.578Z,0
2018-09-24T03:54:39.937Z,0
2018-09-24T03:55:39.839Z,0
2018-09-24T03:56:39.787Z,0
2018-09-24T03:57:39.770Z,0
2018-09-24T03:58:39.498Z,0
2018-09-24T03:59:39.809Z,0
2018-09-24T04:00:39.257Z,0
2018-09-24T04:01:39.755Z,0
2018-09-24T04:02:39.524Z,0
2018-09-24T04:03:39.559Z,0
2018-09-24T04:04:39.354Z,0
2018-09-24T04:05:39.496Z,0
2018-09-24T04:06:39.199Z,0
2018-09-24T04:07:38.944Z,0
2018-09-24T04:08:39.257Z,0
2018-09-24T04:09:40.011Z,0
2018-09-24T04:10:39.224Z,0
2018-09-24T04:11:39.198Z,0
2018-09-24T04:12:39.194Z,0
2018-09-24T04:13:39.485Z,0
2018-09-24T04:14:39.436Z,0
2018-09-24T04:15:39.177Z,0
2018-09-24T04:16:39.178Z,0
2018-09-24T04:17:39.462Z,0
2018-09-24T04:18:39.767Z,0
2018-09-24T04:19:40.176Z,0
2018-09-24T04:20:39.411Z,0
2018-09-24T04:21:39.402Z,0
2018-09-24T04:22:39.397Z,0
2018-09-24T04:23:39.652Z,0
2018-09-24T04:24:39.652Z,0
2018-09-24T04:25:39.124Z,0
2018-09-24T04:26:39.481Z,0
2018-09-24T04:27:39.448Z,0
2018-09-24T04:28:39.161Z,0
2018-09-24T04:29:39.377Z,0
2018-09-24T04:30:39.378Z,0
2018-09-24T04:31:39.365Z,0
2018-09-24T04:32:39.274Z,0
2018-09-24T04:33:39.745Z,0
2018-09-24T04:34:39.327Z,0
2018-09-24T04:35:39.331Z,0
2018-09-24T04:36:38.821Z,0
2018-09-24T04:37:39.074Z,0
2018-09-24T04:38:39.064Z,0
2018-09-24T04:39:39.381Z,0
2018-09-24T04:40:39.571Z,0
2018-09-24T04:41:39.332Z,0
2018-09-24T04:42:39.310Z,0
2018-09-24T04:43:39.285Z,0
2018-09-24T04:44:39.570Z,0
2018-09-24T04:45:39.287Z,0
2018-09-24T04:46:39.021Z,0
2018-09-24T04:47:39.038Z,0
2018-09-24T04:48:39.315Z,0
2018-09-24T04:49:39.520Z,0
2018-09-24T04:50:39.260Z,0
2018-09-24T04:51:39.514Z,0
2018-09-24T04:52:39.526Z,0
2018-09-24T04:53:39.123Z,0
2018-09-24T04:54:39.001Z,0
2018-09-24T04:55:39.509Z,0
2018-09-24T04:56:38.981Z,0
2018-09-24T04:57:39.230Z,0
2018-09-24T04:58:39.865Z,0
2018-09-24T04:59:39.223Z,0
2018-09-24T05:00:38.953Z,0
2018-09-24T05:01:38.681Z,0
2018-09-24T05:02:39.201Z,0
2018-09-24T05:03:39.258Z,0
2018-09-24T05:04:39.441Z,0
2018-09-24T05:05:38.922Z,0
2018-09-24T05:06:39.175Z,5
2018-09-24T05:07:39.156Z,5
2018-09-24T05:08:38.641Z,5
2018-09-24T05:09:39.147Z,5
2018-09-24T05:10:39.422Z,5
2018-09-24T05:11:39.140Z,5
2018-09-24T05:12:39.390Z,5
2018-09-24T05:13:39.155Z,10
2018-09-24T05:14:39.155Z,10
2018-09-24T05:15:39.129Z,10
2018-09-24T05:16:39.453Z,10
2018-09-24T05:17:38.888Z,10
2018-09-24T05:18:38.954Z,15
2018-09-24T05:19:38.611Z,15
2018-09-24T05:20:39.108Z,15
2018-09-24T05:21:39.096Z,15
2018-09-24T05:22:39.101Z,20
2018-09-24T05:23:39.093Z,20
2018-09-24T05:24:38.603Z,20
2018-09-24T05:25:39.076Z,20
2018-09-24T05:26:39.144Z,25
2018-09-24T05:27:39.503Z,25
2018-09-24T05:28:39.341Z,25
2018-09-24T05:29:38.556Z,25
2018-09-24T05:30:39.105Z,30
2018-09-24T05:31:38.795Z,30
2018-09-24T05:32:39.568Z,30
2018-09-24T05:33:39.080Z,35
2018-09-24T05:34:39.730Z,35
2018-09-24T05:35:39.024Z,35
2018-09-24T05:36:39.294Z,40
2018-09-24T05:37:39.024Z,40
2018-09-24T05:38:39.278Z,45
2018-09-24T05:39:38.752Z,45
2018-09-24T05:40:39.005Z,45
2018-09-24T05:41:39.000Z,50
2018-09-24T05:42:38.737Z,50
2018-09-24T05:43:38.468Z,50
2018-09-24T05:44:39.027Z,55
2018-09-24T05:45:39.241Z,55
2018-09-24T05:46:38.973Z,55
2018-09-24T05:47:38.718Z,60
2018-09-24T05:48:39.003Z,60
2018-09-24T05:49:38.713Z,60
2018-09-24T05:50:39.245Z,65
2018-09-24T05:51:38.950Z,65
2018-09-24T05:52:39.205Z,65
2018-09-24T05:53:38.468Z,65
2018-09-24T05:54:38.489Z,70
2018-09-24T05:55:38.941Z,70
2018-09-24T05:56:39.165Z,70
2018-09-24T05:57:38.663Z,70
2018-09-24T05:58:39.171Z,75
2018-09-24T05:59:38.908Z,75
2018-09-24T06:00:38.669Z,75
2018-09-24T06:01:38.909Z,75
2018-09-24T06:02:39.161Z,80
2018-09-24T06:03:38.909Z,80
2018-09-24T06:04:39.559Z,80
2018-09-24T06:05:39.134Z,80
2018-09-24T06:06:39.142Z,80
2018-09-24T06:07:38.619Z,85
2018-09-24T06:08:38.884Z,85
2018-09-24T06:09:39.114Z,85
2018-09-24T06:10:38.386Z,85
2018-09-24T06:11:38.877Z,85
2018-09-24T06:12:39.127Z,85
2018-09-24T06:13:39.373Z,90
2018-09-24T06:14:38.090Z,90
2018-09-24T06:15:39.151Z,95
2018-09-24T06:16:38.849Z,95
2018-09-24T06:17:38.870Z,95
2018-09-24T06:18:39.086Z,95
2018-09-24T06:19:38.888Z,95
2018-09-24T06:20:38.829Z,100
2018-09-24T06:21:38.806Z,100
2018-09-24T06:22:38.785Z,100
2018-09-24T06:23:38.297Z,100
2018-09-24T06:24:39.050Z,100
2018-09-24T06:25:38.786Z,100
2018-09-24T06:26:38.824Z,105
2018-09-24T06:27:38.935Z,105
2018-09-24T06:28:39.107Z,105
2018-09-24T06:29:38.819Z,105
2018-09-24T06:30:38.799Z,110
2018-09-24T06:31:38.786Z,105
2018-09-24T06:32:38.785Z,110
2018-09-24T06:33:38.500Z,110
2018-09-24T06:34:38.375Z,110
2018-09-24T06:35:38.754Z,115
2018-09-24T06:36:38.238Z,115
2018-09-24T06:37:39.009Z,120
2018-09-24T06:38:38.743Z,125
2018-09-24T06:39:39.105Z,125
2018-09-24T06:40:38.747Z,130
2018-09-24T06:41:39.008Z,130
2018-09-24T06:42:38.998Z,130
2018-09-24T06:43:38.739Z,110
2018-09-24T06:44:38.988Z,135
2018-09-24T06:45:38.741Z,115
2018-09-24T06:46:38.728Z,140
2018-09-24T06:47:38.726Z,140
2018-09-24T06:48:38.977Z,135
2018-09-24T06:49:38.533Z,150
2018-09-24T06:50:38.708Z,155
2018-09-24T06:51:38.441Z,150
2018-09-24T06:52:38.463Z,125
2018-09-24T06:53:38.715Z,115
2018-09-24T06:54:38.937Z,125
2018-09-24T06:55:38.689Z,140
2018-09-24T06:56:38.928Z,210
2018-09-24T06:57:38.680Z,220
2018-09-24T06:58:38.678Z,170
2018-09-24T06:59:39.258Z,165
2018-09-24T07:00:38.435Z,195
2018-09-24T07:01:38.441Z,230
2018-09-24T07:02:38.160Z,225
2018-09-24T07:03:38.703Z,150
2018-09-24T07:04:39.033Z,150
2018-09-24T07:05:39.619Z,175
2018-09-24T07:06:38.673Z,240
2018-09-24T07:07:37.904Z,145
2018-09-24T07:08:38.664Z,145
2018-09-24T07:09:38.649Z,140
2018-09-24T07:10:38.668Z,255
2018-09-24T07:11:38.907Z,140
2018-09-24T07:12:37.871Z,150
2018-09-24T07:13:38.630Z,225
2018-09-24T07:14:38.711Z,140
2018-09-24T07:15:38.928Z,150
2018-09-24T07:16:38.912Z,145
2018-09-24T07:17:37.862Z,145
2018-09-24T07:18:38.908Z,185
2018-09-24T07:19:38.950Z,150
2018-09-24T07:20:38.386Z,150
2018-09-24T07:21:39.289Z,155
2018-09-24T07:22:38.387Z,175
2018-09-24T07:23:38.121Z,265
2018-09-24T07:24:38.107Z,150
2018-09-24T07:25:38.126Z,145
2018-09-24T07:26:38.657Z,200
2018-09-24T07:27:38.553Z,265
2018-09-24T07:28:39.205Z,210
2018-09-24T07:29:38.647Z,235
2018-09-24T07:30:38.636Z,265
2018-09-24T07:31:38.911Z,165
2018-09-24T07:32:38.616Z,265
2018-09-24T07:33:38.350Z,270
2018-09-24T07:34:38.429Z,245
2018-09-24T07:35:38.652Z,270
2018-09-24T07:36:38.377Z,150
2018-09-24T07:37:38.619Z,195
2018-09-24T07:38:38.360Z,255
2018-09-24T07:39:38.618Z,255
2018-09-24T07:40:37.864Z,130
2018-09-24T07:41:38.627Z,135
2018-09-24T07:42:38.397Z,195
2018-09-24T07:43:38.984Z,160
2018-09-24T07:44:38.366Z,270
2018-09-24T07:45:38.362Z,270
2018-09-24T07:46:38.121Z,270
2018-09-24T07:47:38.892Z,270
2018-09-24T07:48:38.635Z,255
2018-09-24T07:49:38.406Z,260
2018-09-24T07:50:38.625Z,260
2018-09-24T07:51:38.366Z,260
2018-09-24T07:52:38.376Z,175
2018-09-24T07:53:38.374Z,255
2018-09-24T07:54:38.944Z,255
2018-09-24T07:55:39.023Z,255
2018-09-24T07:56:38.911Z,225
2018-09-24T07:57:38.388Z,255
2018-09-24T07:58:38.407Z,250
2018-09-24T07:59:38.428Z,255
2018-09-24T08:00:38.640Z,255
2018-09-24T08:01:38.675Z,255
2018-09-24T08:02:38.407Z,255
2018-09-24T08:03:38.413Z,250
2018-09-24T08:04:38.217Z,250
2018-09-24T08:05:38.663Z,150
2018-09-24T08:06:38.655Z,140
2018-09-24T08:07:39.071Z,155
2018-09-24T08:08:38.430Z,250
2018-09-24T08:09:38.655Z,255
2018-09-24T08:10:38.936Z,265
2018-09-24T08:11:38.659Z,270
2018-09-24T08:12:38.696Z,265
2018-09-24T08:13:38.154Z,260
2018-09-24T08:14:38.694Z,250
2018-09-24T08:15:38.692Z,160
2018-09-24T08:16:38.438Z,205
2018-09-24T08:17:38.436Z,195
2018-09-24T08:18:38.970Z,250
2018-09-24T08:19:38.450Z,245
2018-09-24T08:20:38.938Z,150
2018-09-24T08:21:38.493Z,160
2018-09-24T08:22:38.698Z,255
2018-09-24T08:23:38.694Z,260
2018-09-24T08:24:38.463Z,185
2018-09-24T08:25:38.444Z,270
2018-09-24T08:26:38.697Z,270
2018-09-24T08:27:38.699Z,265
2018-09-24T08:28:38.430Z,265
2018-09-24T08:29:38.967Z,220
2018-09-24T08:30:38.702Z,285
2018-09-24T08:31:38.485Z,265
2018-09-24T08:32:38.466Z,285
2018-09-24T08:33:38.470Z,225
2018-09-24T08:34:38.502Z,275
2018-09-24T08:35:38.463Z,275
2018-09-24T08:36:38.463Z,275
2018-09-24T08:37:38.188Z,245
2018-09-24T08:38:38.426Z,280
2018-09-24T08:39:38.191Z,295
2018-09-24T08:40:38.424Z,235
2018-09-24T08:41:38.949Z,310
2018-09-24T08:42:37.932Z,290
2018-09-24T08:43:38.429Z,300
2018-09-24T08:44:38.676Z,295
2018-09-24T08:45:38.414Z,275
2018-09-24T08:46:38.667Z,205
2018-09-24T08:47:38.409Z,280
2018-09-24T08:48:38.420Z,270
2018-09-24T08:49:38.812Z,165
2018-09-24T08:50:38.678Z,170
2018-09-24T08:51:38.419Z,270
2018-09-24T08:52:38.400Z,270
2018-09-24T08:53:38.211Z,280
2018-09-24T08:54:38.929Z,280
2018-09-24T08:55:38.445Z,290
2018-09-24T08:56:38.867Z,300
2018-09-24T08:57:38.131Z,290
2018-09-24T08:58:38.374Z,295
2018-09-24T08:59:38.647Z,300
2018-09-24T09:00:38.914Z,300
2018-09-24T09:01:38.138Z,305
2018-09-24T09:02:39.120Z,310
2018-09-24T09:03:38.700Z,195
2018-09-24T09:04:38.703Z,205
2018-09-24T09:05:38.398Z,305
2018-09-24T09:06:38.397Z,305
2018-09-24T09:07:38.130Z,285
2018-09-24T09:08:38.905Z,210
2018-09-24T09:09:38.913Z,205
2018-09-24T09:10:38.720Z,200
2018-09-24T09:11:38.117Z,290
2018-09-24T09:12:38.394Z,285
2018-09-24T09:13:38.377Z,200
2018-09-24T09:14:38.126Z,270
2018-09-24T09:15:38.897Z,225
2018-09-24T09:16:39.106Z,195
2018-09-24T09:17:38.182Z,295
2018-09-24T09:18:38.113Z,275
2018-09-24T09:19:38.419Z,195
2018-09-24T09:20:38.121Z,200
2018-09-24T09:21:37.857Z,205
2018-09-24T09:22:37.858Z,200
2018-09-24T09:23:38.644Z,235
2018-09-24T09:24:38.907Z,220
2018-09-24T09:25:38.617Z,230
2018-09-24T09:26:38.613Z,240
2018-09-24T09:27:38.359Z,235
2018-09-24T09:28:38.108Z,325
2018-09-24T09:29:38.887Z,320
2018-09-24T09:30:38.941Z,230
2018-09-24T09:31:38.142Z,220
2018-09-24T09:32:38.634Z,215
2018-09-24T09:33:38.934Z,210
2018-09-24T09:34:38.440Z,220
2018-09-24T09:35:38.374Z,235
2018-09-24T09:36:38.381Z,220
2018-09-24T09:37:38.622Z,225
2018-09-24T09:38:38.633Z,210
2018-09-24T09:39:38.632Z,200
2018-09-24T09:40:38.618Z,190
2018-09-24T09:41:38.617Z,180
2018-09-24T09:42:38.383Z,185
2018-09-24T09:43:38.600Z,195
2018-09-24T09:44:38.627Z,210
2018-09-24T09:45:38.608Z,230
2018-09-24T09:46:38.651Z,310
2018-09-24T09:47:38.077Z,315
2018-09-24T09:48:38.595Z,315
2018-09-24T09:49:38.393Z,310
2018-09-24T09:50:38.604Z,225
2018-09-24T09:51:38.344Z,225
2018-09-24T09:52:38.093Z,225
2018-09-24T09:53:38.848Z,275
2018-09-24T09:54:38.589Z,290
2018-09-24T09:55:38.107Z,320
2018-09-24T09:56:38.573Z,240
2018-09-24T09:57:38.610Z,230
2018-09-24T09:58:38.635Z,225
2018-09-24T09:59:38.320Z,215
2018-09-24T10:00:38.607Z,225
2018-09-24T10:01:38.565Z,290
2018-09-24T10:02:38.871Z,275
2018-09-24T10:03:38.592Z,290
2018-09-24T10:04:38.670Z,290
2018-09-24T10:05:38.580Z,285
2018-09-24T10:06:38.566Z,220
2018-09-24T10:07:38.082Z,215
2018-09-24T10:08:38.585Z,205
2018-09-24T10:09:38.878Z,205
2018-09-24T10:10:38.564Z,210
2018-09-24T10:11:38.053Z,220
2018-09-24T10:12:38.601Z,280
2018-09-24T10:13:38.582Z,300
2018-09-24T10:14:38.583Z,220
2018-09-24T10:15:38.637Z,215
2018-09-24T10:16:38.326Z,210
2018-09-24T10:17:38.290Z,220
2018-09-24T10:18:38.627Z,250
2018-09-24T10:19:38.340Z,275
2018-09-24T10:20:38.556Z,245
2018-09-24T10:21:38.846Z,275
2018-09-24T10:22:39.083Z,275
2018-09-24T10:23:38.295Z,200
2018-09-24T10:24:39.675Z,280
2018-09-24T10:25:38.583Z,285
2018-09-24T10:26:38.315Z,290
2018-09-24T10:27:38.588Z,295
2018-09-24T10:28:38.279Z,300
2018-09-24T10:29:38.549Z,295
2018-09-24T10:30:38.557Z,290
2018-09-24T10:31:38.019Z,295
2018-09-24T10:32:38.338Z,310
2018-09-24T10:33:39.110Z,315
2018-09-24T10:34:38.541Z,305
2018-09-24T10:35:38.553Z,260
2018-09-24T10:36:38.550Z,225
2018-09-24T10:37:38.819Z,220
2018-09-24T10:38:38.642Z,210
2018-09-24T10:39:38.829Z,200
2018-09-24T10:40:38.553Z,255
2018-09-24T10:41:38.535Z,250
2018-09-24T10:42:38.880Z,245
2018-09-24T10:43:38.276Z,245
2018-09-24T10:44:38.308Z,245
2018-09-24T10:45:38.542Z,245
2018-09-24T10:46:38.785Z,250
2018-09-24T10:47:38.789Z,250
2018-09-24T10:48:38.266Z,245
2018-09-24T10:49:38.342Z,230
2018-09-24T10:50:38.529Z,175
2018-09-24T10:51:38.274Z,180
2018-09-24T10:52:38.528Z,240
2018-09-24T10:53:38.280Z,235
2018-09-24T10:54:38.316Z,230
2018-09-24T10:55:38.801Z,230
2018-09-24T10:56:38.313Z,235
2018-09-24T10:57:38.260Z,235
2018-09-24T10:58:38.306Z,235
2018-09-24T10:59:39.590Z,235
2018-09-24T11:00:38.522Z,235
2018-09-24T11:01:38.536Z,240
2018-09-24T11:02:38.246Z,230
2018-09-24T11:03:38.517Z,160
2018-09-24T11:04:38.555Z,165
2018-09-24T11:05:38.659Z,170
2018-09-24T11:06:38.795Z,170
2018-09-24T11:07:38.781Z,170
2018-09-24T11:08:38.525Z,175
2018-09-24T11:09:38.790Z,210
2018-09-24T11:10:38.799Z,165
2018-09-24T11:11:37.987Z,220
2018-09-24T11:12:38.509Z,210
2018-09-24T11:13:38.251Z,220
2018-09-24T11:14:38.496Z,165
2018-09-24T11:15:38.664Z,165
2018-09-24T11:16:39.734Z,215
2018-09-24T11:17:40.432Z,220
2018-09-24T11:18:38.254Z,225
2018-09-24T11:19:38.480Z,225
2018-09-24T11:20:37.984Z,235
2018-09-24T11:21:38.483Z,245
2018-09-24T11:22:38.484Z,250
2018-09-24T11:23:38.900Z,260
2018-09-24T11:24:38.226Z,275
2018-09-24T11:25:38.740Z,275
2018-09-24T11:26:41.533Z,280
2018-09-24T11:27:38.222Z,275
2018-09-24T11:28:38.472Z,275
2018-09-24T11:29:38.545Z,255
2018-09-24T11:30:37.985Z,220
2018-09-24T11:31:38.763Z,265
2018-09-24T11:32:38.215Z,205
2018-09-24T11:33:38.489Z,195
2018-09-24T11:34:38.482Z,195
2018-09-24T11:35:38.221Z,190
2018-09-24T11:36:38.226Z,210
2018-09-24T11:37:38.779Z,235
2018-09-24T11:38:38.471Z,240
2018-09-24T11:39:38.455Z,195
2018-09-24T11:40:38.719Z,210
2018-09-24T11:41:38.201Z,265
2018-09-24T11:42:38.726Z,265
2018-09-24T11:43:38.718Z,255
2018-09-24T11:44:38.475Z,250
2018-09-24T11:45:38.216Z,255
2018-09-24T11:46:38.959Z,250
2018-09-24T11:47:38.744Z,210
2018-09-24T11:48:38.459Z,235
2018-09-24T11:49:38.205Z,205
2018-09-24T11:50:38.526Z,200
2018-09-24T11:51:38.204Z,195
2018-09-24T11:52:38.710Z,190
2018-09-24T11:53:38.197Z,190
2018-09-24T11:54:38.198Z,195
2018-09-24T11:55:38.189Z,205
2018-09-24T11:56:38.185Z,225
2018-09-24T11:57:38.466Z,215
2018-09-24T11:58:38.185Z,230
2018-09-24T11:59:37.713Z,275
2018-09-24T12:00:38.184Z,275
2018-09-24T12:01:38.203Z,280
2018-09-24T12:02:38.562Z,275
2018-09-24T12:03:38.188Z,270
2018-09-24T12:04:38.702Z,260
2018-09-24T12:05:38.190Z,255
2018-09-24T12:06:38.453Z,255
2018-09-24T12:07:38.462Z,200
2018-09-24T12:08:38.443Z,205
2018-09-24T12:09:37.933Z,255
2018-09-24T12:10:38.330Z,255
2018-09-24T12:11:38.699Z,260
2018-09-24T12:12:38.437Z,260
2018-09-24T12:13:37.920Z,270
2018-09-24T12:14:38.437Z,270
2018-09-24T12:15:38.458Z,270
2018-09-24T12:16:38.442Z,250
2018-09-24T12:17:38.700Z,250
2018-09-24T12:18:37.927Z,200
2018-09-24T12:19:38.451Z,195
2018-09-24T12:20:38.453Z,210
2018-09-24T12:21:38.693Z,235
2018-09-24T12:22:37.940Z,230
2018-09-24T12:23:38.480Z,185
2018-09-24T12:24:38.194Z,220
2018-09-24T12:25:38.991Z,215
2018-09-24T12:26:38.681Z,215
2018-09-24T12:27:38.182Z,215
2018-09-24T12:28:37.674Z,215
2018-09-24T12:29:38.431Z,215
2018-09-24T12:30:38.426Z,215
2018-09-24T12:31:38.185Z,220
2018-09-24T12:32:38.175Z,225
2018-09-24T12:33:38.438Z,225
2018-09-24T12:34:38.201Z,230
2018-09-24T12:35:38.768Z,235
2018-09-24T12:36:38.566Z,240
2018-09-24T12:37:38.187Z,250
2018-09-24T12:38:38.688Z,255
2018-09-24T12:39:38.170Z,250
2018-09-24T12:40:38.439Z,240
2018-09-24T12:41:38.742Z,225
2018-09-24T12:42:38.426Z,230
2018-09-24T12:43:38.426Z,215
2018-09-24T12:44:38.167Z,190
2018-09-24T12:45:37.962Z,200
2018-09-24T12:46:38.176Z,190
2018-09-24T12:47:38.424Z,210
2018-09-24T12:48:38.413Z,210
2018-09-24T12:49:38.670Z,215
2018-09-24T12:50:38.463Z,200
2018-09-24T12:51:38.417Z,215
2018-09-24T12:52:38.164Z,195
2018-09-24T12:53:39.022Z,190
2018-09-24T12:54:38.672Z,205
2018-09-24T12:55:38.411Z,210
2018-09-24T12:56:38.170Z,215
2018-09-24T12:57:38.683Z,225
2018-09-24T12:58:37.925Z,225
2018-09-24T12:59:38.401Z,230
2018-09-24T13:00:37.905Z,225
2018-09-24T13:01:38.153Z,225
2018-09-24T13:02:38.411Z,225
2018-09-24T13:03:37.908Z,225
2018-09-24T13:04:38.401Z,220
2018-09-24T13:05:38.202Z,215
2018-09-24T13:06:38.140Z,215
2018-09-24T13:07:38.409Z,215
2018-09-24T13:08:38.145Z,210
2018-09-24T13:09:38.136Z,210
2018-09-24T13:10:38.485Z,220
2018-09-24T13:11:38.399Z,215
2018-09-24T13:12:38.675Z,215
2018-09-24T13:13:38.175Z,215
2018-09-24T13:14:38.119Z,220
2018-09-24T13:15:38.151Z,220
2018-09-24T13:16:38.408Z,225
2018-09-24T13:17:38.138Z,230
2018-09-24T13:18:38.651Z,235
2018-09-24T13:19:38.676Z,240
2018-09-24T13:20:38.635Z,240
2018-09-24T13:21:38.640Z,245
2018-09-24T13:22:38.640Z,245
2018-09-24T13:23:38.656Z,240
2018-09-24T13:24:38.666Z,240
2018-09-24T13:25:38.642Z,235
2018-09-24T13:26:38.660Z,240
2018-09-24T13:27:38.475Z,245
2018-09-24T13:28:38.408Z,245
2018-09-24T13:29:38.667Z,240
2018-09-24T13:30:38.647Z,235
2018-09-24T13:31:38.407Z,230
2018-09-24T13:32:38.485Z,230
2018-09-24T13:33:38.422Z,220
2018-09-24T13:34:38.132Z,220
2018-09-24T13:35:38.210Z,215
2018-09-24T13:36:38.647Z,210
2018-09-24T13:37:38.383Z,205
2018-09-24T13:38:38.153Z,170
2018-09-24T13:39:38.182Z,165
2018-09-24T13:40:38.151Z,160
2018-09-24T13:41:38.412Z,190
2018-09-24T13:42:38.636Z,160
2018-09-24T13:43:38.005Z,165
2018-09-24T13:44:38.378Z,160
2018-09-24T13:45:38.131Z,160
2018-09-24T13:46:38.178Z,160
2018-09-24T13:47:38.156Z,165
2018-09-24T13:48:38.380Z,175
2018-09-24T13:49:38.494Z,205
2018-09-24T13:50:38.202Z,215
2018-09-24T13:51:38.638Z,220
2018-09-24T13:52:38.375Z,225
2018-09-24T13:53:38.276Z,220
2018-09-24T13:54:38.646Z,220
2018-09-24T13:55:38.137Z,220
2018-09-24T13:56:38.377Z,200
2018-09-24T13:57:38.121Z,195
2018-09-24T13:58:38.643Z,215
2018-09-24T13:59:38.149Z,215
2018-09-24T14:00:38.370Z,215
2018-09-24T14:01:38.114Z,210
2018-09-24T14:02:38.112Z,205
2018-09-24T14:03:38.166Z,195
2018-09-24T14:04:38.611Z,190
2018-09-24T14:05:38.681Z,185
2018-09-24T14:06:38.154Z,185
2018-09-24T14:07:38.613Z,160
2018-09-24T14:08:38.113Z,150
2018-09-24T14:09:38.101Z,160